Costa Luminosa — ICGU — position and weather

sailwx.info

Track history (hours):
 
Tides and Currents Weather Stations Pressure Air Temp Water Temp Dewpoint Dewpoint Depression Visibility Wind Speed Wind Dir Waves Ship Positions

Costa Luminosa

Last reported at 2015-May-29 11:33 UTC. Time now 2015-May-29 12:26 UTC.
Position N 59°27' E 018°25'.

Length 294 m; draft 8.1 m.

Type: Passenger vessel. MMSI: 247257900.

Date/timePositionNaut miles runAvg speedWind from/ knotsBaromVisibWave heightAir tempDewpointWater temp
2015-May-29 11:33N 59°27' E 018°25'8510.0
2015-May-29 03:03N 59°32' E 021°13'611.8
2015-May-29 02:33N 59°29' E 021°23'4411.1
2015-May-28 22:33N 59°32' E 022°50'1412.0
2015-May-28 21:23N 59°32' E 023°18'1011.7
2015-May-28 20:33N 59°32' E 023°37'1211.7
2015-May-28 19:34N 59°31' E 023°60'1211.6
2015-May-28 18:33N 59°30' E 024°23'1111.1
2015-May-28 17:33N 59°31' E 024°45'5 4.4
2015-May-28 16:31N 59°27' E 024°46'0 0.0
2015-May-28 15:31N 59°27' E 024°46'0 0.0
2015-May-28 09:16N 59°27' E 024°46'0 0.0
2015-May-28 07:31N 59°27' E 024°46'0 0.0
2015-May-28 06:25N 59°27' E 024°46'0 0.1
2015-May-28 05:33N 59°27' E 024°46'1111.4
2015-May-28 04:33N 59°38' E 024°40'3416.7
2015-May-28 02:32N 59°54' E 025°39'1717.7
2015-May-28 01:33N 59°58' E 026°13'1515.4
2015-May-28 00:33N 60°01' E 026°43'1412.7
2015-May-27 23:28N 60°01' E 027°11'1313.6
2015-May-27 22:29N 60°08' E 027°33'5712.8
2015-May-27 18:04N 60°02' E 029°26'1010.7
2015-May-27 17:07N 59°59' E 029°45'711.5
2015-May-27 16:31N 59°56' E 029°58'7 7.3
2015-May-27 15:33N 59°57' E 030°11'0 0.0
2015-May-27 14:32N 59°57' E 030°11'0 0.0
2015-May-27 13:32N 59°57' E 030°11'0 0.0
2015-May-27 12:32N 59°57' E 030°11'0 0.0
2015-May-27 11:32N 59°57' E 030°11'0 0.0
2015-May-27 10:32N 59°57' E 030°11'0 0.0
2015-May-27 09:32N 59°57' E 030°11'0 0.0
2015-May-27 08:32N 59°57' E 030°11'0 0.0
2015-May-27 07:32N 59°57' E 030°11'0 0.0
2015-May-27 06:32N 59°57' E 030°11'0 0.0
2015-May-27 05:32N 59°57' E 030°11'0 0.0
2015-May-27 04:32N 59°57' E 030°11'0 0.0
2015-May-27 03:32N 59°57' E 030°11'0 0.0
2015-May-27 02:32N 59°57' E 030°11'0 0.0
2015-May-27 01:32N 59°57' E 030°11'0 0.0
2015-May-27 00:32N 59°57' E 030°11'0 0.0
2015-May-26 23:32N 59°57' E 030°11'0 0.0
2015-May-26 22:32N 59°57' E 030°11'0 0.0
2015-May-26 21:32N 59°57' E 030°11'0 0.0
2015-May-26 20:32N 59°57' E 030°11'0 0.0
2015-May-26 19:32N 59°57' E 030°11'0 0.0
2015-May-26 18:32N 59°57' E 030°11'0 0.0
2015-May-26 17:32N 59°57' E 030°11'0 0.0
2015-May-26 16:32N 59°57' E 030°11'0 0.0
2015-May-26 15:32N 59°57' E 030°11'0 0.0
2015-May-26 14:32N 59°57' E 030°11'0 0.0
2015-May-26 13:32N 59°57' E 030°11'0 0.0
2015-May-26 12:32N 59°57' E 030°11'0 0.0
2015-May-26 11:32N 59°57' E 030°11'0 0.0
2015-May-26 10:32N 59°57' E 030°11'0 0.0
2015-May-26 09:32N 59°57' E 030°11'0 0.0
2015-May-26 08:32N 59°57' E 030°11'0 0.0
2015-May-26 07:32N 59°57' E 030°11'0 0.0
2015-May-26 06:32N 59°57' E 030°11'0 0.0
2015-May-26 05:32N 59°57' E 030°11'0 0.0
2015-May-26 04:32N 59°57' E 030°11'6 6.6
2015-May-26 03:33N 59°56' E 029°59'1211.9
2015-May-26 02:33N 60°00' E 029°37'1414.0
2015-May-26 01:32N 60°02' E 029°09'5115.2
2015-May-25 22:09N 60°05' E 027°26'814.0
2015-May-25 21:33N 60°01' E 027°12'1312.8
2015-May-25 20:33N 59°59' E 026°47'1313.4
2015-May-25 19:33N 59°57' E 026°20'1413.8
2015-May-25 18:33N 59°53' E 025°54'29 1.9
2015-May-25 03:11N 59°59' E 024°57'711.0
2015-May-25 02:30N 59°52' E 024°52'1111.9
2015-May-25 01:33N 59°45' E 024°35'1413.6
2015-May-25 00:33N 59°41' E 024°09'1413.5
2015-May-24 23:33N 59°36' E 023°44'1413.6
2015-May-24 22:33N 59°32' E 023°18'3313.8
2015-May-24 20:11N 59°18' E 022°20'2213.3
2015-May-24 18:33N 59°25' E 021°39'1414.1
2015-May-24 17:34N 59°25' E 021°12'8410.3
2015-May-24 09:26N 59°23' E 018°27'8 9.4
2015-May-24 08:33N 59°20' E 018°11'2 2.0
2015-May-24 07:32N 59°21' E 018°08'0 0.0
2015-May-24 06:32N 59°21' E 018°08'0 0.0
2015-May-24 05:32N 59°21' E 018°08'0 0.0
2015-May-24 04:32N 59°21' E 018°08'0 0.0
2015-May-24 03:32N 59°21' E 018°08'0 0.0
2015-May-24 02:32N 59°21' E 018°08'0 0.0
2015-May-24 01:32N 59°21' E 018°08'0 0.0
2015-May-24 00:32N 59°21' E 018°08'0 0.0
2015-May-23 23:32N 59°21' E 018°08'0 0.0
2015-May-23 22:32N 59°21' E 018°08'0 0.0
2015-May-23 21:32N 59°21' E 018°08'0 0.0
2015-May-23 20:32N 59°21' E 018°08'0 0.0
2015-May-23 19:26N 59°21' E 018°08'0 0.0
2015-May-23 18:29N 59°21' E 018°08'0 0.0
2015-May-23 17:32N 59°21' E 018°08'0 0.0
2015-May-23 16:32N 59°21' E 018°08'0 0.0
2015-May-23 15:32N 59°21' E 018°08'0 0.0
2015-May-23 14:32N 59°21' E 018°08'0 0.0
2015-May-23 13:32N 59°21' E 018°08'0 0.0
2015-May-23 12:32N 59°21' E 018°08'0 0.0
2015-May-23 11:32N 59°21' E 018°08'0 0.0
2015-May-23 10:29N 59°21' E 018°08'0 0.0
2015-May-23 09:32N 59°21' E 018°08'0 0.0
2015-May-23 08:32N 59°21' E 018°08'0 0.0
2015-May-23 07:32N 59°21' E 018°08'0 0.0
2015-May-23 06:32N 59°21' E 018°08'0 0.0
2015-May-23 05:32N 59°21' E 018°08'0 0.0
2015-May-23 04:32N 59°21' E 018°08'0 0.0
2015-May-23 03:32N 59°21' E 018°08'0 0.0
2015-May-23 02:32N 59°21' E 018°08'0 0.0
2015-May-23 01:26N 59°21' E 018°08'0 0.0
2015-May-23 00:32N 59°21' E 018°08'0 0.0
2015-May-22 23:32N 59°21' E 018°08'0 0.0
2015-May-22 22:32N 59°21' E 018°08'0 0.0
2015-May-22 21:29N 59°21' E 018°08'0 0.0
2015-May-22 20:29N 59°21' E 018°08'0 0.0
2015-May-22 19:32N 59°21' E 018°08'0 0.0
2015-May-22 18:32N 59°21' E 018°08'0 0.0
2015-May-22 17:32N 59°21' E 018°08'0 0.0
2015-May-22 16:29N 59°21' E 018°08'0 0.0
2015-May-22 15:29N 59°21' E 018°08'0 0.0
2015-May-22 14:32N 59°21' E 018°08'0 0.0
2015-May-22 13:32N 59°21' E 018°08'0 0.0
2015-May-22 12:32N 59°21' E 018°08'0 0.0
2015-May-22 11:32N 59°21' E 018°08'0 0.0
2015-May-22 10:29N 59°21' E 018°08'0 0.0
2015-May-22 09:32N 59°21' E 018°08'0 0.0
2015-May-22 08:29N 59°21' E 018°08'0 0.0
2015-May-22 07:32N 59°21' E 018°08'0 0.1
2015-May-22 06:32N 59°21' E 018°08'8 8.2
2015-May-22 05:31N 59°22' E 018°24'7311.5
2015-May-21 23:08N 59°35' E 020°45'1418.2
2015-May-21 22:23N 59°31' E 021°11'1518.2
2015-May-21 21:33N 59°28' E 021°40'1615.8
2015-May-21 20:33N 59°26' E 022°11'1312.6
2015-May-21 19:33N 59°31' E 022°34'1513.4
2015-May-21 18:27N 59°33' E 023°03'1413.2
2015-May-21 17:25N 59°32' E 023°30'2613.0
2015-May-21 15:24N 59°30' E 024°22'1112.8
2015-May-21 14:33N 59°32' E 024°43'5 3.9
2015-May-21 13:10N 59°27' E 024°46'0 0.0
2015-May-21 12:16N 59°27' E 024°46'0 0.0
2015-May-21 11:28N 59°27' E 024°46'0 0.0
2015-May-21 08:10N 59°27' E 024°46'0 0.0
2015-May-21 07:28N 59°27' E 024°46'0 0.0
2015-May-21 06:22N 59°27' E 024°46'0 0.0
2015-May-21 05:28N 59°27' E 024°46'0 0.1
2015-May-21 04:33N 59°27' E 024°46'1111.3
2015-May-21 03:34N 59°38' E 024°40'3215.4
2015-May-21 01:28N 59°54' E 025°37'1516.5
2015-May-21 00:33N 59°57' E 026°06'1616.3
2015-May-20 23:33N 60°01' E 026°37'1615.5
2015-May-20 22:33N 60°00' E 027°08'1616.1
2015-May-20 21:33N 60°09' E 027°35'6514.5
2015-May-20 17:05N 59°59' E 029°44'611.0
2015-May-20 16:33N 59°56' E 029°54'8 8.4
2015-May-20 15:33N 59°57' E 030°11'0 0.1
2015-May-20 14:33N 59°57' E 030°11'0 0.0
2015-May-20 13:33N 59°57' E 030°11'0 0.0
2015-May-20 12:33N 59°57' E 030°11'0 0.0
2015-May-20 11:33N 59°57' E 030°11'0 0.0
2015-May-20 10:33N 59°57' E 030°11'0 0.0
2015-May-20 09:30N 59°57' E 030°11'0 0.0
2015-May-20 08:33N 59°57' E 030°11'0 0.0
2015-May-20 07:33N 59°57' E 030°11'0 0.0
2015-May-20 06:30N 59°57' E 030°11'0 0.0
2015-May-20 05:33N 59°57' E 030°11'0 0.0
2015-May-20 04:33N 59°57' E 030°11'0 0.0
2015-May-20 03:33N 59°57' E 030°11'0 0.0
2015-May-20 02:33N 59°57' E 030°11'0 0.0
2015-May-20 01:33N 59°57' E 030°11'0 0.0
2015-May-20 00:30N 59°57' E 030°11'0 0.0
2015-May-19 23:33N 59°57' E 030°11'0 0.0
2015-May-19 22:33N 59°57' E 030°11'0 0.0
2015-May-19 21:33N 59°57' E 030°11'0 0.0
2015-May-19 20:33N 59°57' E 030°11'0 0.0
2015-May-19 19:33N 59°57' E 030°11'0 0.0
2015-May-19 18:33N 59°57' E 030°11'0 0.0
2015-May-19 17:33N 59°57' E 030°11'0 0.0
2015-May-19 16:33N 59°57' E 030°11'0 0.0
2015-May-19 15:33N 59°57' E 030°11'0 0.0
2015-May-19 14:33N 59°57' E 030°11'0 0.0
2015-May-19 13:33N 59°57' E 030°11'0 0.0
2015-May-19 12:33N 59°57' E 030°11'  
Track history (hours):
 
Tides and Currents Weather Stations Pressure Air Temp Water Temp Dewpoint Dewpoint Depression Visibility Wind Speed Wind Dir Waves Ship Positions

Costa Luminosa

Last reported at 2015-May-29 11:33 UTC. Time now 2015-May-29 12:26 UTC.
Position N 59°27' E 018°25'.

Length 294 m; draft 8.1 m.

Type: Passenger vessel. MMSI: 247257900.

Date/timePositionNaut miles runAvg speedWind from/ knotsBaromVisibWave heightAir tempDewpointWater temp
2015-May-29 11:33N 59°27' E 018°25'8510.0
2015-May-29 03:03N 59°32' E 021°13'611.8
2015-May-29 02:33N 59°29' E 021°23'4411.1
2015-May-28 22:33N 59°32' E 022°50'1412.0
2015-May-28 21:23N 59°32' E 023°18'1011.7
2015-May-28 20:33N 59°32' E 023°37'1211.7
2015-May-28 19:34N 59°31' E 023°60'1211.6
2015-May-28 18:33N 59°30' E 024°23'1111.1
2015-May-28 17:33N 59°31' E 024°45'5 4.4
2015-May-28 16:31N 59°27' E 024°46'0 0.0
2015-May-28 15:31N 59°27' E 024°46'0 0.0
2015-May-28 09:16N 59°27' E 024°46'0 0.0
2015-May-28 07:31N 59°27' E 024°46'0 0.0
2015-May-28 06:25N 59°27' E 024°46'0 0.1
2015-May-28 05:33N 59°27' E 024°46'1111.4
2015-May-28 04:33N 59°38' E 024°40'3416.7
2015-May-28 02:32N 59°54' E 025°39'1717.7
2015-May-28 01:33N 59°58' E 026°13'1515.4
2015-May-28 00:33N 60°01' E 026°43'1412.7
2015-May-27 23:28N 60°01' E 027°11'1313.6
2015-May-27 22:29N 60°08' E 027°33'5712.8
2015-May-27 18:04N 60°02' E 029°26'1010.7
2015-May-27 17:07N 59°59' E 029°45'711.5
2015-May-27 16:31N 59°56' E 029°58'7 7.3
2015-May-27 15:33N 59°57' E 030°11'0 0.0
2015-May-27 14:32N 59°57' E 030°11'0 0.0
2015-May-27 13:32N 59°57' E 030°11'0 0.0
2015-May-27 12:32N 59°57' E 030°11'0 0.0
2015-May-27 11:32N 59°57' E 030°11'0 0.0
2015-May-27 10:32N 59°57' E 030°11'0 0.0
2015-May-27 09:32N 59°57' E 030°11'0 0.0
2015-May-27 08:32N 59°57' E 030°11'0 0.0
2015-May-27 07:32N 59°57' E 030°11'0 0.0
2015-May-27 06:32N 59°57' E 030°11'0 0.0
2015-May-27 05:32N 59°57' E 030°11'0 0.0
2015-May-27 04:32N 59°57' E 030°11'0 0.0
2015-May-27 03:32N 59°57' E 030°11'0 0.0
2015-May-27 02:32N 59°57' E 030°11'0 0.0
2015-May-27 01:32N 59°57' E 030°11'0 0.0
2015-May-27 00:32N 59°57' E 030°11'0 0.0
2015-May-26 23:32N 59°57' E 030°11'0 0.0
2015-May-26 22:32N 59°57' E 030°11'0 0.0
2015-May-26 21:32N 59°57' E 030°11'0 0.0
2015-May-26 20:32N 59°57' E 030°11'0 0.0
2015-May-26 19:32N 59°57' E 030°11'0 0.0
2015-May-26 18:32N 59°57' E 030°11'0 0.0
2015-May-26 17:32N 59°57' E 030°11'0 0.0
2015-May-26 16:32N 59°57' E 030°11'0 0.0
2015-May-26 15:32N 59°57' E 030°11'0 0.0
2015-May-26 14:32N 59°57' E 030°11'0 0.0
2015-May-26 13:32N 59°57' E 030°11'0 0.0
2015-May-26 12:32N 59°57' E 030°11'0 0.0
2015-May-26 11:32N 59°57' E 030°11'0 0.0
2015-May-26 10:32N 59°57' E 030°11'0 0.0
2015-May-26 09:32N 59°57' E 030°11'0 0.0
2015-May-26 08:32N 59°57' E 030°11'0 0.0
2015-May-26 07:32N 59°57' E 030°11'0 0.0
2015-May-26 06:32N 59°57' E 030°11'0 0.0
2015-May-26 05:32N 59°57' E 030°11'0 0.0
2015-May-26 04:32N 59°57' E 030°11'6 6.6
2015-May-26 03:33N 59°56' E 029°59'1211.9
2015-May-26 02:33N 60°00' E 029°37'1414.0
2015-May-26 01:32N 60°02' E 029°09'5115.2
2015-May-25 22:09N 60°05' E 027°26'814.0
2015-May-25 21:33N 60°01' E 027°12'1312.8
2015-May-25 20:33N 59°59' E 026°47'1313.4
2015-May-25 19:33N 59°57' E 026°20'1413.8
2015-May-25 18:33N 59°53' E 025°54'29 1.9
2015-May-25 03:11N 59°59' E 024°57'711.0
2015-May-25 02:30N 59°52' E 024°52'1111.9
2015-May-25 01:33N 59°45' E 024°35'1413.6
2015-May-25 00:33N 59°41' E 024°09'1413.5
2015-May-24 23:33N 59°36' E 023°44'1413.6
2015-May-24 22:33N 59°32' E 023°18'3313.8
2015-May-24 20:11N 59°18' E 022°20'2213.3
2015-May-24 18:33N 59°25' E 021°39'1414.1
2015-May-24 17:34N 59°25' E 021°12'8410.3
2015-May-24 09:26N 59°23' E 018°27'8 9.4
2015-May-24 08:33N 59°20' E 018°11'2 2.0
2015-May-24 07:32N 59°21' E 018°08'0 0.0
2015-May-24 06:32N 59°21' E 018°08'0 0.0
2015-May-24 05:32N 59°21' E 018°08'0 0.0
2015-May-24 04:32N 59°21' E 018°08'0 0.0
2015-May-24 03:32N 59°21' E 018°08'0 0.0
2015-May-24 02:32N 59°21' E 018°08'0 0.0
2015-May-24 01:32N 59°21' E 018°08'0 0.0
2015-May-24 00:32N 59°21' E 018°08'0 0.0
2015-May-23 23:32N 59°21' E 018°08'0 0.0
2015-May-23 22:32N 59°21' E 018°08'0 0.0
2015-May-23 21:32N 59°21' E 018°08'0 0.0
2015-May-23 20:32N 59°21' E 018°08'0 0.0
2015-May-23 19:26N 59°21' E 018°08'0 0.0
2015-May-23 18:29N 59°21' E 018°08'0 0.0
2015-May-23 17:32N 59°21' E 018°08'0 0.0
2015-May-23 16:32N 59°21' E 018°08'0 0.0
2015-May-23 15:32N 59°21' E 018°08'0 0.0
2015-May-23 14:32N 59°21' E 018°08'0 0.0
2015-May-23 13:32N 59°21' E 018°08'0 0.0
2015-May-23 12:32N 59°21' E 018°08'0 0.0
2015-May-23 11:32N 59°21' E 018°08'0 0.0
2015-May-23 10:29N 59°21' E 018°08'0 0.0
2015-May-23 09:32N 59°21' E 018°08'0 0.0
2015-May-23 08:32N 59°21' E 018°08'0 0.0
2015-May-23 07:32N 59°21' E 018°08'0 0.0
2015-May-23 06:32N 59°21' E 018°08'0 0.0
2015-May-23 05:32N 59°21' E 018°08'0 0.0
2015-May-23 04:32N 59°21' E 018°08'0 0.0
2015-May-23 03:32N 59°21' E 018°08'0 0.0
2015-May-23 02:32N 59°21' E 018°08'0 0.0
2015-May-23 01:26N 59°21' E 018°08'0 0.0
2015-May-23 00:32N 59°21' E 018°08'0 0.0
2015-May-22 23:32N 59°21' E 018°08'0 0.0
2015-May-22 22:32N 59°21' E 018°08'0 0.0
2015-May-22 21:29N 59°21' E 018°08'0 0.0
2015-May-22 20:29N 59°21' E 018°08'0 0.0
2015-May-22 19:32N 59°21' E 018°08'0 0.0
2015-May-22 18:32N 59°21' E 018°08'0 0.0
2015-May-22 17:32N 59°21' E 018°08'0 0.0
2015-May-22 16:29N 59°21' E 018°08'0 0.0
2015-May-22 15:29N 59°21' E 018°08'0 0.0
2015-May-22 14:32N 59°21' E 018°08'0 0.0
2015-May-22 13:32N 59°21' E 018°08'0 0.0
2015-May-22 12:32N 59°21' E 018°08'0 0.0
2015-May-22 11:32N 59°21' E 018°08'0 0.0
2015-May-22 10:29N 59°21' E 018°08'0 0.0
2015-May-22 09:32N 59°21' E 018°08'0 0.0
2015-May-22 08:29N 59°21' E 018°08'0 0.0
2015-May-22 07:32N 59°21' E 018°08'0 0.1
2015-May-22 06:32N 59°21' E 018°08'8 8.2
2015-May-22 05:31N 59°22' E 018°24'7311.5
2015-May-21 23:08N 59°35' E 020°45'1418.2
2015-May-21 22:23N 59°31' E 021°11'1518.2
2015-May-21 21:33N 59°28' E 021°40'1615.8
2015-May-21 20:33N 59°26' E 022°11'1312.6
2015-May-21 19:33N 59°31' E 022°34'1513.4
2015-May-21 18:27N 59°33' E 023°03'1413.2
2015-May-21 17:25N 59°32' E 023°30'2613.0
2015-May-21 15:24N 59°30' E 024°22'1112.8
2015-May-21 14:33N 59°32' E 024°43'5 3.9
2015-May-21 13:10N 59°27' E 024°46'0 0.0
2015-May-21 12:16N 59°27' E 024°46'0 0.0
2015-May-21 11:28N 59°27' E 024°46'0 0.0
2015-May-21 08:10N 59°27' E 024°46'0 0.0
2015-May-21 07:28N 59°27' E 024°46'0 0.0
2015-May-21 06:22N 59°27' E 024°46'0 0.0
2015-May-21 05:28N 59°27' E 024°46'0 0.1
2015-May-21 04:33N 59°27' E 024°46'1111.3
2015-May-21 03:34N 59°38' E 024°40'3215.4
2015-May-21 01:28N 59°54' E 025°37'1516.5
2015-May-21 00:33N 59°57' E 026°06'1616.3
2015-May-20 23:33N 60°01' E 026°37'1615.5
2015-May-20 22:33N 60°00' E 027°08'1616.1
2015-May-20 21:33N 60°09' E 027°35'6514.5
2015-May-20 17:05N 59°59' E 029°44'611.0
2015-May-20 16:33N 59°56' E 029°54'8 8.4
2015-May-20 15:33N 59°57' E 030°11'0 0.1
2015-May-20 14:33N 59°57' E 030°11'0 0.0
2015-May-20 13:33N 59°57' E 030°11'0 0.0
2015-May-20 12:33N 59°57' E 030°11'0 0.0
2015-May-20 11:33N 59°57' E 030°11'0 0.0
2015-May-20 10:33N 59°57' E 030°11'0 0.0
2015-May-20 09:30N 59°57' E 030°11'0 0.0
2015-May-20 08:33N 59°57' E 030°11'0 0.0
2015-May-20 07:33N 59°57' E 030°11'0 0.0
2015-May-20 06:30N 59°57' E 030°11'0 0.0
2015-May-20 05:33N 59°57' E 030°11'0 0.0
2015-May-20 04:33N 59°57' E 030°11'0 0.0
2015-May-20 03:33N 59°57' E 030°11'0 0.0
2015-May-20 02:33N 59°57' E 030°11'0 0.0
2015-May-20 01:33N 59°57' E 030°11'0 0.0
2015-May-20 00:30N 59°57' E 030°11'0 0.0
2015-May-19 23:33N 59°57' E 030°11'0 0.0
2015-May-19 22:33N 59°57' E 030°11'0 0.0
2015-May-19 21:33N 59°57' E 030°11'0 0.0
2015-May-19 20:33N 59°57' E 030°11'0 0.0
2015-May-19 19:33N 59°57' E 030°11'0 0.0
2015-May-19 18:33N 59°57' E 030°11'0 0.0
2015-May-19 17:33N 59°57' E 030°11'0 0.0
2015-May-19 16:33N 59°57' E 030°11'0 0.0
2015-May-19 15:33N 59°57' E 030°11'0 0.0
2015-May-19 14:33N 59°57' E 030°11'0 0.0
2015-May-19 13:33N 59°57' E 030°11'0 0.0
2015-May-19 12:33N 59°57' E 030°11'  

Dump ship's entire track history